sensor_id;sensor_type;location;lat;lon;timestamp;P1;durP1;ratioP1;P2;durP2;ratioP2
32032;SDS011;31720;52.638;9.216;2023-03-01T00:02:26;6.40;;;3.10;;
32032;SDS011;31720;52.638;9.216;2023-03-01T00:05:29;12.85;;;2.67;;
32032;SDS011;31720;52.638;9.216;2023-03-01T00:08:30;5.43;;;2.67;;
32032;SDS011;31720;52.638;9.216;2023-03-01T00:11:33;9.65;;;3.85;;
32032;SDS011;31720;52.638;9.216;2023-03-01T00:14:34;9.98;;;2.45;;
32032;SDS011;31720;52.638;9.216;2023-03-01T00:17:36;9.70;;;3.47;;
32032;SDS011;31720;52.638;9.216;2023-03-01T00:20:39;4.40;;;2.72;;
32032;SDS011;31720;52.638;9.216;2023-03-01T00:23:40;6.57;;;2.97;;
32032;SDS011;31720;52.638;9.216;2023-03-01T00:26:42;4.18;;;2.47;;
32032;SDS011;31720;52.638;9.216;2023-03-01T00:29:43;4.20;;;2.50;;
32032;SDS011;31720;52.638;9.216;2023-03-01T00:32:45;5.22;;;2.50;;
32032;SDS011;31720;52.638;9.216;2023-03-01T00:35:47;5.75;;;2.95;;
32032;SDS011;31720;52.638;9.216;2023-03-01T00:38:49;4.40;;;2.35;;
32032;SDS011;31720;52.638;9.216;2023-03-01T00:41:50;6.53;;;2.95;;
32032;SDS011;31720;52.638;9.216;2023-03-01T00:44:51;3.22;;;2.47;;
32032;SDS011;31720;52.638;9.216;2023-03-01T00:47:53;6.93;;;3.05;;
32032;SDS011;31720;52.638;9.216;2023-03-01T00:50:56;6.15;;;2.92;;
32032;SDS011;31720;52.638;9.216;2023-03-01T00:53:58;4.70;;;2.65;;
32032;SDS011;31720;52.638;9.216;2023-03-01T00:57:00;4.35;;;2.45;;
32032;SDS011;31720;52.638;9.216;2023-03-01T01:00:02;5.60;;;3.13;;
32032;SDS011;31720;52.638;9.216;2023-03-01T01:03:04;6.03;;;2.72;;
32032;SDS011;31720;52.638;9.216;2023-03-01T01:06:08;2.70;;;1.90;;
32032;SDS011;31720;52.638;9.216;2023-03-01T01:09:15;4.80;;;2.50;;
32032;SDS011;31720;52.638;9.216;2023-03-01T01:12:18;5.72;;;1.85;;
32032;SDS011;31720;52.638;9.216;2023-03-01T01:15:19;9.35;;;3.17;;
32032;SDS011;31720;52.638;9.216;2023-03-01T01:18:20;5.80;;;2.47;;
32032;SDS011;31720;52.638;9.216;2023-03-01T01:21:23;9.50;;;2.88;;
32032;SDS011;31720;52.638;9.216;2023-03-01T01:24:26;2.50;;;1.92;;
32032;SDS011;31720;52.638;9.216;2023-03-01T01:27:27;8.02;;;3.42;;
32032;SDS011;31720;52.638;9.216;2023-03-01T01:30:30;3.95;;;1.85;;
32032;SDS011;31720;52.638;9.216;2023-03-01T01:33:31;7.15;;;2.22;;
32032;SDS011;31720;52.638;9.216;2023-03-01T01:36:34;4.53;;;2.30;;
32032;SDS011;31720;52.638;9.216;2023-03-01T01:39:35;3.22;;;2.08;;
32032;SDS011;31720;52.638;9.216;2023-03-01T01:42:37;3.72;;;1.70;;
32032;SDS011;31720;52.638;9.216;2023-03-01T01:45:38;6.40;;;3.13;;
32032;SDS011;31720;52.638;9.216;2023-03-01T01:48:41;4.07;;;1.60;;
32032;SDS011;31720;52.638;9.216;2023-03-01T01:51:47;2.72;;;1.70;;
32032;SDS011;31720;52.638;9.216;2023-03-01T01:54:50;4.97;;;2.75;;
32032;SDS011;31720;52.638;9.216;2023-03-01T01:57:55;4.90;;;2.08;;
32032;SDS011;31720;52.638;9.216;2023-03-01T02:00:59;3.78;;;1.90;;
32032;SDS011;31720;52.638;9.216;2023-03-01T02:04:03;4.03;;;1.50;;
32032;SDS011;31720;52.638;9.216;2023-03-01T02:07:09;4.28;;;1.60;;
32032;SDS011;31720;52.638;9.216;2023-03-01T02:10:16;4.35;;;1.65;;
32032;SDS011;31720;52.638;9.216;2023-03-01T02:13:17;4.18;;;1.73;;
32032;SDS011;31720;52.638;9.216;2023-03-01T02:16:19;5.82;;;1.50;;
32032;SDS011;31720;52.638;9.216;2023-03-01T02:19:25;2.15;;;1.75;;
32032;SDS011;31720;52.638;9.216;2023-03-01T02:22:37;3.78;;;1.50;;
32032;SDS011;31720;52.638;9.216;2023-03-01T02:25:41;2.20;;;1.33;;
32032;SDS011;31720;52.638;9.216;2023-03-01T02:28:54;5.15;;;1.92;;
32032;SDS011;31720;52.638;9.216;2023-03-01T02:31:56;1.95;;;1.30;;
32032;SDS011;31720;52.638;9.216;2023-03-01T02:35:01;4.90;;;2.28;;
32032;SDS011;31720;52.638;9.216;2023-03-01T02:38:06;2.22;;;1.52;;
32032;SDS011;31720;52.638;9.216;2023-03-01T02:41:09;5.15;;;2.05;;
32032;SDS011;31720;52.638;9.216;2023-03-01T02:44:15;3.10;;;1.92;;
32032;SDS011;31720;52.638;9.216;2023-03-01T02:47:17;6.25;;;2.45;;
32032;SDS011;31720;52.638;9.216;2023-03-01T02:50:22;2.92;;;1.48;;
32032;SDS011;31720;52.638;9.216;2023-03-01T02:53:45;2.95;;;1.40;;
32032;SDS011;31720;52.638;9.216;2023-03-01T02:56:55;1.80;;;1.17;;
32032;SDS011;31720;52.638;9.216;2023-03-01T02:59:59;1.85;;;1.55;;
32032;SDS011;31720;52.638;9.216;2023-03-01T03:03:06;2.22;;;1.55;;
32032;SDS011;31720;52.638;9.216;2023-03-01T03:06:09;4.13;;;1.88;;
32032;SDS011;31720;52.638;9.216;2023-03-01T03:09:11;3.22;;;1.60;;
32032;SDS011;31720;52.638;9.216;2023-03-01T03:12:12;5.90;;;1.65;;
32032;SDS011;31720;52.638;9.216;2023-03-01T03:15:15;4.60;;;1.60;;
32032;SDS011;31720;52.638;9.216;2023-03-01T03:18:17;6.90;;;2.50;;
32032;SDS011;31720;52.638;9.216;2023-03-01T03:21:19;1.42;;;1.13;;
32032;SDS011;31720;52.638;9.216;2023-03-01T03:24:20;2.42;;;1.58;;
32032;SDS011;31720;52.638;9.216;2023-03-01T03:27:21;3.67;;;2.00;;
32032;SDS011;31720;52.638;9.216;2023-03-01T03:30:24;8.13;;;1.73;;
32032;SDS011;31720;52.638;9.216;2023-03-01T03:33:27;3.90;;;2.35;;
32032;SDS011;31720;52.638;9.216;2023-03-01T03:36:29;3.50;;;1.65;;
32032;SDS011;31720;52.638;9.216;2023-03-01T03:39:30;5.35;;;2.15;;
32032;SDS011;31720;52.638;9.216;2023-03-01T03:42:34;2.50;;;1.50;;
32032;SDS011;31720;52.638;9.216;2023-03-01T03:45:37;2.88;;;1.40;;
32032;SDS011;31720;52.638;9.216;2023-03-01T03:48:39;3.28;;;1.27;;
32032;SDS011;31720;52.638;9.216;2023-03-01T03:51:42;4.65;;;1.85;;
32032;SDS011;31720;52.638;9.216;2023-03-01T03:54:43;3.85;;;1.58;;
32032;SDS011;31720;52.638;9.216;2023-03-01T03:57:45;8.93;;;1.50;;
32032;SDS011;31720;52.638;9.216;2023-03-01T04:00:53;4.15;;;1.65;;
32032;SDS011;31720;52.638;9.216;2023-03-01T04:03:56;2.25;;;1.35;;
32032;SDS011;31720;52.638;9.216;2023-03-01T04:07:04;3.03;;;1.40;;
32032;SDS011;31720;52.638;9.216;2023-03-01T04:10:06;6.88;;;2.40;;
32032;SDS011;31720;52.638;9.216;2023-03-01T04:13:10;3.65;;;1.48;;
32032;SDS011;31720;52.638;9.216;2023-03-01T04:16:14;3.25;;;1.67;;
32032;SDS011;31720;52.638;9.216;2023-03-01T04:19:15;4.82;;;1.83;;
32032;SDS011;31720;52.638;9.216;2023-03-01T04:22:16;2.60;;;1.75;;
32032;SDS011;31720;52.638;9.216;2023-03-01T04:25:18;9.48;;;2.47;;
32032;SDS011;31720;52.638;9.216;2023-03-01T04:28:20;12.73;;;1.80;;
32032;SDS011;31720;52.638;9.216;2023-03-01T04:31:23;3.33;;;1.55;;
32032;SDS011;31720;52.638;9.216;2023-03-01T04:34:24;3.33;;;1.42;;
32032;SDS011;31720;52.638;9.216;2023-03-01T04:37:26;5.43;;;1.67;;
32032;SDS011;31720;52.638;9.216;2023-03-01T04:40:29;4.80;;;1.55;;
32032;SDS011;31720;52.638;9.216;2023-03-01T04:43:31;3.25;;;1.42;;
32032;SDS011;31720;52.638;9.216;2023-03-01T04:46:35;9.05;;;1.33;;
32032;SDS011;31720;52.638;9.216;2023-03-01T04:49:37;1.38;;;1.15;;
32032;SDS011;31720;52.638;9.216;2023-03-01T04:52:38;1.90;;;1.23;;
32032;SDS011;31720;52.638;9.216;2023-03-01T04:55:39;5.10;;;1.75;;
32032;SDS011;31720;52.638;9.216;2023-03-01T04:58:41;3.53;;;2.13;;
32032;SDS011;31720;52.638;9.216;2023-03-01T05:01:44;3.75;;;1.80;;
32032;SDS011;31720;52.638;9.216;2023-03-01T05:04:45;5.93;;;2.25;;
32032;SDS011;31720;52.638;9.216;2023-03-01T05:07:46;8.55;;;2.38;;
32032;SDS011;31720;52.638;9.216;2023-03-01T05:10:48;3.47;;;1.77;;
32032;SDS011;31720;52.638;9.216;2023-03-01T05:13:51;3.75;;;1.83;;
32032;SDS011;31720;52.638;9.216;2023-03-01T05:16:56;2.03;;;1.52;;
32032;SDS011;31720;52.638;9.216;2023-03-01T05:20:04;2.85;;;1.73;;
32032;SDS011;31720;52.638;9.216;2023-03-01T05:23:08;2.05;;;1.60;;
32032;SDS011;31720;52.638;9.216;2023-03-01T05:26:09;2.85;;;2.05;;
32032;SDS011;31720;52.638;9.216;2023-03-01T05:29:12;6.35;;;2.58;;
32032;SDS011;31720;52.638;9.216;2023-03-01T05:32:15;2.95;;;2.08;;
32032;SDS011;31720;52.638;9.216;2023-03-01T05:35:17;6.70;;;2.55;;
32032;SDS011;31720;52.638;9.216;2023-03-01T05:38:19;2.65;;;1.67;;
32032;SDS011;31720;52.638;9.216;2023-03-01T05:41:22;3.05;;;1.98;;
32032;SDS011;31720;52.638;9.216;2023-03-01T05:44:23;5.25;;;2.38;;
32032;SDS011;31720;52.638;9.216;2023-03-01T05:47:27;4.18;;;2.05;;
32032;SDS011;31720;52.638;9.216;2023-03-01T05:50:29;3.03;;;1.95;;
32032;SDS011;31720;52.638;9.216;2023-03-01T05:53:32;3.53;;;1.98;;
32032;SDS011;31720;52.638;9.216;2023-03-01T05:56:34;4.13;;;1.65;;
32032;SDS011;31720;52.638;9.216;2023-03-01T05:59:35;3.70;;;2.13;;
32032;SDS011;31720;52.638;9.216;2023-03-01T06:02:38;2.92;;;1.77;;
32032;SDS011;31720;52.638;9.216;2023-03-01T06:05:40;6.10;;;1.85;;
32032;SDS011;31720;52.638;9.216;2023-03-01T06:08:42;2.30;;;1.35;;
32032;SDS011;31720;52.638;9.216;2023-03-01T06:11:43;2.92;;;1.52;;
32032;SDS011;31720;52.638;9.216;2023-03-01T06:14:45;2.30;;;1.52;;
32032;SDS011;31720;52.638;9.216;2023-03-01T06:17:48;4.93;;;1.70;;
32032;SDS011;31720;52.638;9.216;2023-03-01T06:20:52;7.28;;;2.40;;
32032;SDS011;31720;52.638;9.216;2023-03-01T06:23:54;3.78;;;2.00;;
32032;SDS011;31720;52.638;9.216;2023-03-01T06:26:55;4.93;;;2.17;;
32032;SDS011;31720;52.638;9.216;2023-03-01T06:29:56;9.75;;;2.42;;
32032;SDS011;31720;52.638;9.216;2023-03-01T06:32:59;5.75;;;2.70;;
32032;SDS011;31720;52.638;9.216;2023-03-01T06:36:01;6.45;;;2.55;;
32032;SDS011;31720;52.638;9.216;2023-03-01T06:39:03;8.93;;;2.28;;
32032;SDS011;31720;52.638;9.216;2023-03-01T06:42:05;10.30;;;3.35;;
32032;SDS011;31720;52.638;9.216;2023-03-01T06:45:08;8.98;;;2.60;;
32032;SDS011;31720;52.638;9.216;2023-03-01T06:48:11;12.60;;;3.95;;
32032;SDS011;31720;52.638;9.216;2023-03-01T06:51:13;8.18;;;2.90;;
32032;SDS011;31720;52.638;9.216;2023-03-01T06:54:14;5.07;;;2.55;;
32032;SDS011;31720;52.638;9.216;2023-03-01T06:57:17;4.65;;;2.75;;
32032;SDS011;31720;52.638;9.216;2023-03-01T07:00:19;15.93;;;2.40;;
32032;SDS011;31720;52.638;9.216;2023-03-01T07:03:23;4.35;;;1.27;;
32032;SDS011;31720;52.638;9.216;2023-03-01T07:06:24;2.00;;;1.25;;
32032;SDS011;31720;52.638;9.216;2023-03-01T07:09:26;7.13;;;2.35;;
32032;SDS011;31720;52.638;9.216;2023-03-01T07:12:27;5.03;;;1.60;;
32032;SDS011;31720;52.638;9.216;2023-03-01T07:15:28;4.72;;;2.25;;
32032;SDS011;31720;52.638;9.216;2023-03-01T07:18:31;5.10;;;2.13;;
32032;SDS011;31720;52.638;9.216;2023-03-01T07:21:32;2.53;;;1.67;;
32032;SDS011;31720;52.638;9.216;2023-03-01T07:24:34;5.80;;;2.47;;
32032;SDS011;31720;52.638;9.216;2023-03-01T07:27:35;2.50;;;1.63;;
32032;SDS011;31720;52.638;9.216;2023-03-01T07:30:37;4.28;;;1.95;;
32032;SDS011;31720;52.638;9.216;2023-03-01T07:33:41;3.08;;;1.85;;
32032;SDS011;31720;52.638;9.216;2023-03-01T07:36:43;6.72;;;2.35;;
32032;SDS011;31720;52.638;9.216;2023-03-01T07:39:45;2.80;;;1.75;;
32032;SDS011;31720;52.638;9.216;2023-03-01T07:42:46;3.03;;;2.08;;
32032;SDS011;31720;52.638;9.216;2023-03-01T07:45:47;5.63;;;2.42;;
32032;SDS011;31720;52.638;9.216;2023-03-01T07:48:50;3.85;;;2.40;;
32032;SDS011;31720;52.638;9.216;2023-03-01T07:51:51;5.50;;;2.50;;
32032;SDS011;31720;52.638;9.216;2023-03-01T07:54:53;6.47;;;2.50;;
32032;SDS011;31720;52.638;9.216;2023-03-01T07:57:54;6.13;;;2.47;;
32032;SDS011;31720;52.638;9.216;2023-03-01T08:00:55;3.92;;;2.33;;
32032;SDS011;31720;52.638;9.216;2023-03-01T08:03:58;6.03;;;2.50;;
32032;SDS011;31720;52.638;9.216;2023-03-01T08:07:00;3.58;;;2.30;;
32032;SDS011;31720;52.638;9.216;2023-03-01T08:10:01;3.92;;;2.28;;
32032;SDS011;31720;52.638;9.216;2023-03-01T08:13:02;6.65;;;2.67;;
32032;SDS011;31720;52.638;9.216;2023-03-01T08:16:05;2.38;;;1.80;;
32032;SDS011;31720;52.638;9.216;2023-03-01T08:19:10;3.80;;;2.28;;
32032;SDS011;31720;52.638;9.216;2023-03-01T08:22:12;3.35;;;2.00;;
32032;SDS011;31720;52.638;9.216;2023-03-01T08:25:14;5.38;;;2.22;;
32032;SDS011;31720;52.638;9.216;2023-03-01T08:28:15;3.33;;;1.77;;
32032;SDS011;31720;52.638;9.216;2023-03-01T08:31:18;6.20;;;2.30;;
32032;SDS011;31720;52.638;9.216;2023-03-01T08:34:22;4.93;;;2.05;;
32032;SDS011;31720;52.638;9.216;2023-03-01T08:37:23;2.95;;;2.22;;
32032;SDS011;31720;52.638;9.216;2023-03-01T08:40:24;3.25;;;1.90;;
32032;SDS011;31720;52.638;9.216;2023-03-01T08:43:26;8.13;;;2.67;;
32032;SDS011;31720;52.638;9.216;2023-03-01T08:46:28;5.45;;;2.47;;
32032;SDS011;31720;52.638;9.216;2023-03-01T08:49:31;5.30;;;2.03;;
32032;SDS011;31720;52.638;9.216;2023-03-01T08:52:33;4.28;;;2.35;;
32032;SDS011;31720;52.638;9.216;2023-03-01T08:55:34;5.13;;;2.67;;
32032;SDS011;31720;52.638;9.216;2023-03-01T08:58:36;6.95;;;2.78;;
32032;SDS011;31720;52.638;9.216;2023-03-01T09:01:37;4.38;;;1.90;;
32032;SDS011;31720;52.638;9.216;2023-03-01T09:04:41;4.70;;;1.83;;
32032;SDS011;31720;52.638;9.216;2023-03-01T09:07:43;4.53;;;2.33;;
32032;SDS011;31720;52.638;9.216;2023-03-01T09:10:44;3.72;;;2.42;;
32032;SDS011;31720;52.638;9.216;2023-03-01T09:13:46;6.25;;;2.30;;
32032;SDS011;31720;52.638;9.216;2023-03-01T09:16:49;11.43;;;3.60;;
32032;SDS011;31720;52.638;9.216;2023-03-01T09:19:52;5.55;;;2.67;;
32032;SDS011;31720;52.638;9.216;2023-03-01T09:22:53;3.47;;;2.47;;
32032;SDS011;31720;52.638;9.216;2023-03-01T09:25:55;7.47;;;3.75;;
32032;SDS011;31720;52.638;9.216;2023-03-01T09:28:56;8.27;;;3.40;;
32032;SDS011;31720;52.638;9.216;2023-03-01T09:31:58;9.65;;;2.63;;
32032;SDS011;31720;52.638;9.216;2023-03-01T09:35:01;5.10;;;2.60;;
32032;SDS011;31720;52.638;9.216;2023-03-01T09:38:04;7.82;;;2.88;;
32032;SDS011;31720;52.638;9.216;2023-03-01T09:41:09;4.53;;;2.05;;
32032;SDS011;31720;52.638;9.216;2023-03-01T09:44:21;3.70;;;2.42;;
32032;SDS011;31720;52.638;9.216;2023-03-01T09:47:31;4.45;;;2.63;;
32032;SDS011;31720;52.638;9.216;2023-03-01T09:50:38;6.47;;;2.67;;
32032;SDS011;31720;52.638;9.216;2023-03-01T09:53:40;8.18;;;3.42;;
32032;SDS011;31720;52.638;9.216;2023-03-01T09:56:44;5.68;;;2.08;;
32032;SDS011;31720;52.638;9.216;2023-03-01T09:59:57;4.13;;;2.22;;
32032;SDS011;31720;52.638;9.216;2023-03-01T10:03:08;3.60;;;2.08;;
32032;SDS011;31720;52.638;9.216;2023-03-01T10:06:19;6.45;;;2.55;;
32032;SDS011;31720;52.638;9.216;2023-03-01T10:09:23;4.57;;;2.00;;
32032;SDS011;31720;52.638;9.216;2023-03-01T10:12:27;5.35;;;2.80;;
32032;SDS011;31720;52.638;9.216;2023-03-01T10:15:37;5.50;;;2.67;;
32032;SDS011;31720;52.638;9.216;2023-03-01T10:18:43;4.93;;;2.60;;
32032;SDS011;31720;52.638;9.216;2023-03-01T10:21:50;5.32;;;2.53;;
32032;SDS011;31720;52.638;9.216;2023-03-01T10:24:52;14.35;;;1.75;;
32032;SDS011;31720;52.638;9.216;2023-03-01T10:27:55;6.15;;;2.85;;
32032;SDS011;31720;52.638;9.216;2023-03-01T10:31:02;3.78;;;1.80;;
32032;SDS011;31720;52.638;9.216;2023-03-01T10:34:07;7.68;;;2.70;;
32032;SDS011;31720;52.638;9.216;2023-03-01T10:37:12;6.55;;;2.40;;
32032;SDS011;31720;52.638;9.216;2023-03-01T10:40:16;4.20;;;2.17;;
32032;SDS011;31720;52.638;9.216;2023-03-01T10:43:19;3.40;;;2.05;;
32032;SDS011;31720;52.638;9.216;2023-03-01T10:46:22;5.47;;;1.73;;
32032;SDS011;31720;52.638;9.216;2023-03-01T10:49:24;5.93;;;2.40;;
32032;SDS011;31720;52.638;9.216;2023-03-01T10:52:29;2.60;;;1.42;;
32032;SDS011;31720;52.638;9.216;2023-03-01T10:55:34;2.90;;;1.40;;
32032;SDS011;31720;52.638;9.216;2023-03-01T10:58:37;1.98;;;1.48;;
32032;SDS011;31720;52.638;9.216;2023-03-01T11:01:40;2.00;;;1.33;;
32032;SDS011;31720;52.638;9.216;2023-03-01T11:04:52;1.95;;;1.30;;
32032;SDS011;31720;52.638;9.216;2023-03-01T11:08:00;2.17;;;1.52;;
32032;SDS011;31720;52.638;9.216;2023-03-01T11:11:04;3.03;;;1.63;;
32032;SDS011;31720;52.638;9.216;2023-03-01T11:14:13;7.28;;;1.67;;
32032;SDS011;31720;52.638;9.216;2023-03-01T11:17:21;2.70;;;1.50;;
32032;SDS011;31720;52.638;9.216;2023-03-01T11:20:27;4.25;;;1.80;;
32032;SDS011;31720;52.638;9.216;2023-03-01T11:23:33;5.18;;;1.75;;
32032;SDS011;31720;52.638;9.216;2023-03-01T11:26:36;3.28;;;2.10;;
32032;SDS011;31720;52.638;9.216;2023-03-01T11:29:41;4.53;;;2.33;;
32032;SDS011;31720;52.638;9.216;2023-03-01T11:32:47;3.13;;;1.92;;
32032;SDS011;31720;52.638;9.216;2023-03-01T11:35:55;4.60;;;1.97;;
32032;SDS011;31720;52.638;9.216;2023-03-01T11:39:05;3.30;;;1.65;;
32032;SDS011;31720;52.638;9.216;2023-03-01T11:42:20;4.53;;;1.20;;
32032;SDS011;31720;52.638;9.216;2023-03-01T11:48:42;2.67;;;1.17;;
32032;SDS011;31720;52.638;9.216;2023-03-01T11:51:52;2.75;;;1.05;;
32032;SDS011;31720;52.638;9.216;2023-03-01T11:55:06;6.85;;;1.17;;
32032;SDS011;31720;52.638;9.216;2023-03-01T11:58:22;1.85;;;1.17;;
32032;SDS011;31720;52.638;9.216;2023-03-01T12:01:43;2.58;;;1.13;;
32032;SDS011;31720;52.638;9.216;2023-03-01T12:04:54;1.52;;;0.93;;
32032;SDS011;31720;52.638;9.216;2023-03-01T12:08:08;3.25;;;1.40;;
32032;SDS011;31720;52.638;9.216;2023-03-01T12:11:22;2.55;;;1.20;;
32032;SDS011;31720;52.638;9.216;2023-03-01T12:14:34;2.03;;;1.20;;
32032;SDS011;31720;52.638;9.216;2023-03-01T12:17:58;3.90;;;2.08;;
32032;SDS011;31720;52.638;9.216;2023-03-01T12:21:14;4.15;;;1.85;;
32032;SDS011;31720;52.638;9.216;2023-03-01T12:28:09;3.58;;;1.63;;
32032;SDS011;31720;52.638;9.216;2023-03-01T12:38:32;2.65;;;1.55;;
32032;SDS011;31720;52.638;9.216;2023-03-01T12:41:43;4.30;;;1.85;;
32032;SDS011;31720;52.638;9.216;2023-03-01T12:45:00;4.57;;;1.63;;
32032;SDS011;31720;52.638;9.216;2023-03-01T12:48:20;3.00;;;1.50;;
32032;SDS011;31720;52.638;9.216;2023-03-01T12:51:29;4.13;;;1.45;;
32032;SDS011;31720;52.638;9.216;2023-03-01T12:54:35;3.67;;;1.70;;
32032;SDS011;31720;52.638;9.216;2023-03-01T12:57:38;5.35;;;1.75;;
32032;SDS011;31720;52.638;9.216;2023-03-01T13:00:46;1.70;;;0.98;;
32032;SDS011;31720;52.638;9.216;2023-03-01T13:04:01;1.85;;;1.30;;
32032;SDS011;31720;52.638;9.216;2023-03-01T13:07:21;6.13;;;1.90;;
32032;SDS011;31720;52.638;9.216;2023-03-01T13:10:31;4.28;;;1.83;;
32032;SDS011;31720;52.638;9.216;2023-03-01T13:13:35;2.67;;;1.67;;
32032;SDS011;31720;52.638;9.216;2023-03-01T13:16:41;3.80;;;1.77;;
32032;SDS011;31720;52.638;9.216;2023-03-01T13:19:46;4.75;;;2.33;;
32032;SDS011;31720;52.638;9.216;2023-03-01T13:23:04;1.92;;;1.10;;
32032;SDS011;31720;52.638;9.216;2023-03-01T13:26:13;1.75;;;1.27;;
32032;SDS011;31720;52.638;9.216;2023-03-01T13:29:25;3.08;;;1.00;;
32032;SDS011;31720;52.638;9.216;2023-03-01T13:32:31;4.60;;;1.40;;
32032;SDS011;31720;52.638;9.216;2023-03-01T13:35:40;2.88;;;1.23;;
32032;SDS011;31720;52.638;9.216;2023-03-01T13:38:45;3.13;;;1.50;;
32032;SDS011;31720;52.638;9.216;2023-03-01T13:41:49;4.75;;;1.73;;
32032;SDS011;31720;52.638;9.216;2023-03-01T13:44:51;2.83;;;1.50;;
32032;SDS011;31720;52.638;9.216;2023-03-01T13:47:56;2.50;;;1.42;;
32032;SDS011;31720;52.638;9.216;2023-03-01T13:51:00;4.63;;;1.63;;
32032;SDS011;31720;52.638;9.216;2023-03-01T13:54:04;2.60;;;1.23;;
32032;SDS011;31720;52.638;9.216;2023-03-01T13:57:05;1.73;;;1.20;;
32032;SDS011;31720;52.638;9.216;2023-03-01T14:00:30;2.00;;;1.27;;
32032;SDS011;31720;52.638;9.216;2023-03-01T14:03:40;4.45;;;2.00;;
32032;SDS011;31720;52.638;9.216;2023-03-01T14:06:42;2.40;;;1.33;;
32032;SDS011;31720;52.638;9.216;2023-03-01T14:09:44;3.22;;;1.40;;
32032;SDS011;31720;52.638;9.216;2023-03-01T14:12:49;2.72;;;1.15;;
32032;SDS011;31720;52.638;9.216;2023-03-01T14:16:01;2.40;;;1.50;;
32032;SDS011;31720;52.638;9.216;2023-03-01T14:19:17;10.15;;;2.15;;
32032;SDS011;31720;52.638;9.216;2023-03-01T14:22:21;4.53;;;1.40;;
32032;SDS011;31720;52.638;9.216;2023-03-01T14:25:26;3.85;;;1.52;;
32032;SDS011;31720;52.638;9.216;2023-03-01T14:28:30;3.88;;;2.33;;
32032;SDS011;31720;52.638;9.216;2023-03-01T14:31:35;18.95;;;3.65;;
32032;SDS011;31720;52.638;9.216;2023-03-01T14:34:43;2.97;;;1.30;;
32032;SDS011;31720;52.638;9.216;2023-03-01T14:37:46;2.53;;;1.20;;
32032;SDS011;31720;52.638;9.216;2023-03-01T14:40:50;8.70;;;2.90;;
32032;SDS011;31720;52.638;9.216;2023-03-01T14:43:55;1.75;;;1.42;;
32032;SDS011;31720;52.638;9.216;2023-03-01T14:46:59;2.20;;;1.10;;
32032;SDS011;31720;52.638;9.216;2023-03-01T14:50:04;4.35;;;1.05;;
32032;SDS011;31720;52.638;9.216;2023-03-01T14:53:12;1.52;;;0.80;;
32032;SDS011;31720;52.638;9.216;2023-03-01T14:56:19;2.42;;;1.38;;
32032;SDS011;31720;52.638;9.216;2023-03-01T14:59:21;9.32;;;3.17;;
32032;SDS011;31720;52.638;9.216;2023-03-01T15:02:24;13.65;;;2.03;;
32032;SDS011;31720;52.638;9.216;2023-03-01T15:05:29;4.18;;;1.45;;
32032;SDS011;31720;52.638;9.216;2023-03-01T15:08:32;3.45;;;1.00;;
32032;SDS011;31720;52.638;9.216;2023-03-01T15:11:35;2.72;;;0.95;;
32032;SDS011;31720;52.638;9.216;2023-03-01T15:14:39;8.52;;;1.50;;
32032;SDS011;31720;52.638;9.216;2023-03-01T15:17:42;8.45;;;2.80;;
32032;SDS011;31720;52.638;9.216;2023-03-01T15:20:45;2.42;;;0.82;;
32032;SDS011;31720;52.638;9.216;2023-03-01T15:23:49;8.88;;;1.92;;
32032;SDS011;31720;52.638;9.216;2023-03-01T15:26:52;3.10;;;1.55;;
32032;SDS011;31720;52.638;9.216;2023-03-01T15:29:57;4.07;;;1.35;;
32032;SDS011;31720;52.638;9.216;2023-03-01T15:33:25;3.30;;;1.00;;
32032;SDS011;31720;52.638;9.216;2023-03-01T15:36:35;3.67;;;1.33;;
32032;SDS011;31720;52.638;9.216;2023-03-01T15:39:40;1.85;;;1.25;;
32032;SDS011;31720;52.638;9.216;2023-03-01T15:42:43;2.78;;;1.13;;
32032;SDS011;31720;52.638;9.216;2023-03-01T15:45:44;2.05;;;1.10;;
32032;SDS011;31720;52.638;9.216;2023-03-01T15:48:58;2.35;;;1.48;;
32032;SDS011;31720;52.638;9.216;2023-03-01T15:52:02;5.20;;;1.35;;
32032;SDS011;31720;52.638;9.216;2023-03-01T15:55:05;2.80;;;1.08;;
32032;SDS011;31720;52.638;9.216;2023-03-01T15:58:16;2.78;;;1.25;;
32032;SDS011;31720;52.638;9.216;2023-03-01T16:01:20;4.18;;;1.17;;
32032;SDS011;31720;52.638;9.216;2023-03-01T16:04:21;1.65;;;1.10;;
32032;SDS011;31720;52.638;9.216;2023-03-01T16:07:24;1.95;;;1.00;;
32032;SDS011;31720;52.638;9.216;2023-03-01T16:10:28;2.42;;;1.27;;
32032;SDS011;31720;52.638;9.216;2023-03-01T16:13:31;3.15;;;1.40;;
32032;SDS011;31720;52.638;9.216;2023-03-01T16:16:33;2.80;;;0.90;;
32032;SDS011;31720;52.638;9.216;2023-03-01T16:19:35;4.55;;;1.38;;
32032;SDS011;31720;52.638;9.216;2023-03-01T16:22:38;2.53;;;1.23;;
32032;SDS011;31720;52.638;9.216;2023-03-01T16:25:40;3.47;;;1.30;;
32032;SDS011;31720;52.638;9.216;2023-03-01T16:28:42;4.50;;;1.10;;
32032;SDS011;31720;52.638;9.216;2023-03-01T16:31:44;3.95;;;1.80;;
32032;SDS011;31720;52.638;9.216;2023-03-01T16:34:45;5.75;;;1.60;;
32032;SDS011;31720;52.638;9.216;2023-03-01T16:37:50;2.40;;;1.20;;
32032;SDS011;31720;52.638;9.216;2023-03-01T16:40:53;4.10;;;1.38;;
32032;SDS011;31720;52.638;9.216;2023-03-01T16:43:55;2.67;;;1.40;;
32032;SDS011;31720;52.638;9.216;2023-03-01T16:46:56;1.33;;;0.90;;
32032;SDS011;31720;52.638;9.216;2023-03-01T16:49:58;4.30;;;0.90;;
32032;SDS011;31720;52.638;9.216;2023-03-01T16:53:01;4.28;;;1.10;;
32032;SDS011;31720;52.638;9.216;2023-03-01T16:56:03;4.07;;;1.13;;
32032;SDS011;31720;52.638;9.216;2023-03-01T16:59:06;4.30;;;1.70;;
32032;SDS011;31720;52.638;9.216;2023-03-01T17:02:08;8.77;;;2.88;;
32032;SDS011;31720;52.638;9.216;2023-03-01T17:05:12;8.55;;;3.13;;
32032;SDS011;31720;52.638;9.216;2023-03-01T17:08:15;21.17;;;4.57;;
32032;SDS011;31720;52.638;9.216;2023-03-01T17:11:17;19.25;;;5.18;;
32032;SDS011;31720;52.638;9.216;2023-03-01T17:14:20;22.65;;;5.97;;
32032;SDS011;31720;52.638;9.216;2023-03-01T17:17:21;20.27;;;4.07;;
32032;SDS011;31720;52.638;9.216;2023-03-01T17:20:23;12.30;;;3.40;;
32032;SDS011;31720;52.638;9.216;2023-03-01T17:23:25;11.05;;;3.47;;
32032;SDS011;31720;52.638;9.216;2023-03-01T17:26:27;8.90;;;2.20;;
32032;SDS011;31720;52.638;9.216;2023-03-01T17:29:29;5.88;;;2.20;;
32032;SDS011;31720;52.638;9.216;2023-03-01T17:32:31;5.90;;;2.22;;
32032;SDS011;31720;52.638;9.216;2023-03-01T17:35:32;3.00;;;1.30;;
32032;SDS011;31720;52.638;9.216;2023-03-01T17:38:38;4.70;;;1.63;;
32032;SDS011;31720;52.638;9.216;2023-03-01T17:41:39;3.38;;;1.55;;
32032;SDS011;31720;52.638;9.216;2023-03-01T17:44:40;2.53;;;1.40;;
32032;SDS011;31720;52.638;9.216;2023-03-01T17:47:42;3.28;;;1.95;;
32032;SDS011;31720;52.638;9.216;2023-03-01T17:50:43;5.10;;;2.40;;
32032;SDS011;31720;52.638;9.216;2023-03-01T17:53:46;3.92;;;2.15;;
32032;SDS011;31720;52.638;9.216;2023-03-01T17:56:47;8.25;;;2.80;;
32032;SDS011;31720;52.638;9.216;2023-03-01T17:59:49;7.03;;;3.30;;
32032;SDS011;31720;52.638;9.216;2023-03-01T18:02:50;15.25;;;5.68;;
32032;SDS011;31720;52.638;9.216;2023-03-01T18:05:53;14.77;;;3.88;;
32032;SDS011;31720;52.638;9.216;2023-03-01T18:08:56;13.25;;;4.32;;
32032;SDS011;31720;52.638;9.216;2023-03-01T18:11:57;13.13;;;4.85;;
32032;SDS011;31720;52.638;9.216;2023-03-01T18:14:59;10.77;;;4.70;;
32032;SDS011;31720;52.638;9.216;2023-03-01T18:18:00;11.35;;;4.53;;
32032;SDS011;31720;52.638;9.216;2023-03-01T18:21:02;10.98;;;3.88;;
32032;SDS011;31720;52.638;9.216;2023-03-01T18:24:05;9.02;;;3.40;;
32032;SDS011;31720;52.638;9.216;2023-03-01T18:27:07;8.68;;;3.60;;
32032;SDS011;31720;52.638;9.216;2023-03-01T18:30:09;14.35;;;3.92;;
32032;SDS011;31720;52.638;9.216;2023-03-01T18:33:12;6.97;;;3.45;;
32032;SDS011;31720;52.638;9.216;2023-03-01T18:36:17;9.52;;;3.88;;
32032;SDS011;31720;52.638;9.216;2023-03-01T18:39:24;10.25;;;4.00;;
32032;SDS011;31720;52.638;9.216;2023-03-01T18:42:26;10.68;;;3.58;;